To NAV CANADA Home Page Login to a new session Search on AWWS site Feedback and Comments Disclaimer Vers la page française équivalente Tips FAQ What's new on the site To the Forecasts and Observations / NOTAM section To "File a Flight Plan" website Publications and other links Update of the User's profile FIC Telephone Numbers My Weather Data Folder Route Weather Data Regional Weather Data Local Weather Data To the Forecasts and Observations / NOTAM section
Request Generated 02/23/2017 at 20:46:56 UTC . Weather information available at that time is displayed.

METAR/TAF

LYNN LAKE/MB    (show WxCam)

METAR CYYL 232000Z AUTO 14005KT 9SM CLR M18/M24 A3018 RMK SLP264=
METAR CYYL 231900Z AUTO 12006KT 9SM FEW140 M18/M23 A3018 RMK SLP265=
METAR CYYL 231800Z AUTO 09005KT 9SM CLR M20/M24 A3019 RMK SLP268=

TAF CYYL 231843Z 2319/2407 07005KT P6SM FEW030 SCT100 BKN250
RMK FCST BASED ON AUTO OBS. NXT FCST BY 240100Z=
Your time UTC time
Weather data provided by Environment Canada and NAV CANADA